sensor_id;sensor_type;location;lat;lon;timestamp;pressure;altitude;pressure_sealevel;temperature;humidity
53715;BME280;39608;55.630;37.864;2023-01-08T00:04:26;100828.00;;;-14.66;60.19
53715;BME280;39608;55.630;37.864;2023-01-08T00:09:30;100829.63;;;-14.65;60.49
53715;BME280;39608;55.630;37.864;2023-01-08T00:14:32;100825.06;;;-14.61;60.35
53715;BME280;39608;55.630;37.864;2023-01-08T00:19:34;100829.69;;;-14.52;60.38
53715;BME280;39608;55.630;37.864;2023-01-08T00:24:37;100830.09;;;-14.45;60.22
53715;BME280;39608;55.630;37.864;2023-01-08T00:29:39;100825.22;;;-14.37;60.38
53715;BME280;39608;55.630;37.864;2023-01-08T00:34:41;100833.88;;;-14.36;60.22
53715;BME280;39608;55.630;37.864;2023-01-08T00:39:44;100846.69;;;-14.33;60.52
53715;BME280;39608;55.630;37.864;2023-01-08T00:44:46;100836.16;;;-14.32;60.40
53715;BME280;39608;55.630;37.864;2023-01-08T00:49:48;100836.59;;;-14.25;60.69
53715;BME280;39608;55.630;37.864;2023-01-08T00:54:52;100840.69;;;-14.21;60.47
53715;BME280;39608;55.630;37.864;2023-01-08T00:59:53;100835.25;;;-14.18;60.56
53715;BME280;39608;55.630;37.864;2023-01-08T01:04:55;100836.63;;;-14.12;60.50
53715;BME280;39608;55.630;37.864;2023-01-08T01:09:59;100837.78;;;-14.03;60.44
53715;BME280;39608;55.630;37.864;2023-01-08T01:15:01;100829.66;;;-13.99;60.72
53715;BME280;39608;55.630;37.864;2023-01-08T01:20:04;100829.94;;;-13.90;60.29
53715;BME280;39608;55.630;37.864;2023-01-08T01:25:08;100834.97;;;-13.87;60.56
53715;BME280;39608;55.630;37.864;2023-01-08T01:30:11;100837.47;;;-13.86;60.73
53715;BME280;39608;55.630;37.864;2023-01-08T01:35:13;100832.28;;;-13.86;60.66
53715;BME280;39608;55.630;37.864;2023-01-08T01:40:16;100841.03;;;-13.87;60.68
53715;BME280;39608;55.630;37.864;2023-01-08T01:45:20;100836.22;;;-13.80;60.67
53715;BME280;39608;55.630;37.864;2023-01-08T01:50:27;100844.97;;;-13.81;60.64
53715;BME280;39608;55.630;37.864;2023-01-08T01:55:32;100844.03;;;-13.67;60.84
53715;BME280;39608;55.630;37.864;2023-01-08T02:00:36;100850.84;;;-13.65;60.94
53715;BME280;39608;55.630;37.864;2023-01-08T02:05:45;100846.75;;;-13.69;60.83
53715;BME280;39608;55.630;37.864;2023-01-08T02:10:54;100855.00;;;-13.62;61.15
53715;BME280;39608;55.630;37.864;2023-01-08T02:16:02;100845.19;;;-13.58;60.83
53715;BME280;39608;55.630;37.864;2023-01-08T02:21:08;100846.75;;;-13.56;60.87
53715;BME280;39608;55.630;37.864;2023-01-08T02:26:15;100840.28;;;-13.50;60.74
53715;BME280;39608;55.630;37.864;2023-01-08T02:31:20;100842.16;;;-13.52;61.02
53715;BME280;39608;55.630;37.864;2023-01-08T02:36:28;100828.28;;;-13.53;61.26
53715;BME280;39608;55.630;37.864;2023-01-08T02:41:47;100837.88;;;-13.53;61.14
53715;BME280;39608;55.630;37.864;2023-01-08T02:46:54;100849.34;;;-13.56;60.92
53715;BME280;39608;55.630;37.864;2023-01-08T02:51:59;100853.97;;;-13.60;60.80
53715;BME280;39608;55.630;37.864;2023-01-08T02:57:10;100839.53;;;-13.65;61.00
53715;BME280;39608;55.630;37.864;2023-01-08T03:02:13;100842.69;;;-13.73;60.67
53715;BME280;39608;55.630;37.864;2023-01-08T03:07:16;100841.00;;;-13.74;61.35
53715;BME280;39608;55.630;37.864;2023-01-08T03:12:23;100844.38;;;-13.72;61.16
53715;BME280;39608;55.630;37.864;2023-01-08T03:17:28;100832.69;;;-13.79;61.44
53715;BME280;39608;55.630;37.864;2023-01-08T03:22:33;100841.44;;;-13.80;60.79
53715;BME280;39608;55.630;37.864;2023-01-08T03:27:43;100827.34;;;-13.90;60.60
53715;BME280;39608;55.630;37.864;2023-01-08T03:32:46;100860.31;;;-13.89;60.59
53715;BME280;39608;55.630;37.864;2023-01-08T03:37:53;100857.69;;;-13.89;60.73
53715;BME280;39608;55.630;37.864;2023-01-08T03:42:58;100858.75;;;-13.92;60.95
53715;BME280;39608;55.630;37.864;2023-01-08T03:48:02;100841.94;;;-14.01;60.89
53715;BME280;39608;55.630;37.864;2023-01-08T03:53:06;100854.16;;;-13.88;60.67
53715;BME280;39608;55.630;37.864;2023-01-08T03:58:10;100852.81;;;-13.81;60.89
53715;BME280;39608;55.630;37.864;2023-01-08T04:03:12;100853.13;;;-13.73;60.92
53715;BME280;39608;55.630;37.864;2023-01-08T04:08:14;100859.38;;;-13.63;60.90
53715;BME280;39608;55.630;37.864;2023-01-08T04:13:17;100858.00;;;-13.55;61.03
53715;BME280;39608;55.630;37.864;2023-01-08T04:18:19;100855.09;;;-13.51;61.07
53715;BME280;39608;55.630;37.864;2023-01-08T04:23:21;100857.81;;;-13.39;60.90
53715;BME280;39608;55.630;37.864;2023-01-08T04:28:24;100851.13;;;-13.44;61.33
53715;BME280;39608;55.630;37.864;2023-01-08T04:33:26;100854.88;;;-13.48;61.33
53715;BME280;39608;55.630;37.864;2023-01-08T04:38:28;100852.91;;;-13.44;60.74
53715;BME280;39608;55.630;37.864;2023-01-08T04:43:32;100838.72;;;-13.40;61.03
53715;BME280;39608;55.630;37.864;2023-01-08T04:48:34;100841.81;;;-13.35;60.85
53715;BME280;39608;55.630;37.864;2023-01-08T04:53:36;100844.66;;;-13.38;60.89
53715;BME280;39608;55.630;37.864;2023-01-08T04:58:41;100845.25;;;-13.34;61.47
53715;BME280;39608;55.630;37.864;2023-01-08T05:03:43;100849.50;;;-13.33;60.83
53715;BME280;39608;55.630;37.864;2023-01-08T05:08:45;100853.56;;;-13.29;61.10
53715;BME280;39608;55.630;37.864;2023-01-08T05:13:49;100850.13;;;-13.30;61.21
53715;BME280;39608;55.630;37.864;2023-01-08T05:18:53;100862.84;;;-13.25;60.62
53715;BME280;39608;55.630;37.864;2023-01-08T05:23:55;100855.88;;;-13.25;61.09
53715;BME280;39608;55.630;37.864;2023-01-08T05:28:58;100855.22;;;-13.15;61.22
53715;BME280;39608;55.630;37.864;2023-01-08T05:34:00;100866.28;;;-13.12;60.72
53715;BME280;39608;55.630;37.864;2023-01-08T05:39:04;100863.97;;;-13.03;61.28
53715;BME280;39608;55.630;37.864;2023-01-08T05:44:08;100864.28;;;-12.95;61.24
53715;BME280;39608;55.630;37.864;2023-01-08T05:49:10;100868.34;;;-12.91;61.13
53715;BME280;39608;55.630;37.864;2023-01-08T05:54:12;100854.94;;;-12.86;60.99
53715;BME280;39608;55.630;37.864;2023-01-08T05:59:16;100860.22;;;-12.75;61.24
53715;BME280;39608;55.630;37.864;2023-01-08T06:04:18;100837.66;;;-12.76;61.40
53715;BME280;39608;55.630;37.864;2023-01-08T06:09:20;100836.44;;;-12.83;61.31
53715;BME280;39608;55.630;37.864;2023-01-08T06:14:23;100846.72;;;-12.69;61.41
53715;BME280;39608;55.630;37.864;2023-01-08T06:19:25;100853.16;;;-12.62;61.49
53715;BME280;39608;55.630;37.864;2023-01-08T06:24:27;100850.09;;;-12.56;61.27
53715;BME280;39608;55.630;37.864;2023-01-08T06:29:31;100857.53;;;-12.38;61.44
53715;BME280;39608;55.630;37.864;2023-01-08T06:34:33;100849.03;;;-12.29;61.12
53715;BME280;39608;55.630;37.864;2023-01-08T06:39:34;100846.91;;;-12.24;61.26
53715;BME280;39608;55.630;37.864;2023-01-08T06:44:38;100866.66;;;-12.19;61.27
53715;BME280;39608;55.630;37.864;2023-01-08T06:49:40;100858.81;;;-12.19;61.00
53715;BME280;39608;55.630;37.864;2023-01-08T06:54:42;100869.16;;;-12.18;60.67
53715;BME280;39608;55.630;37.864;2023-01-08T06:59:45;100857.63;;;-12.15;61.37
53715;BME280;39608;55.630;37.864;2023-01-08T07:04:47;100858.69;;;-12.18;61.41
53715;BME280;39608;55.630;37.864;2023-01-08T07:09:49;100866.94;;;-12.11;61.41
53715;BME280;39608;55.630;37.864;2023-01-08T07:14:52;100875.50;;;-11.98;61.52
53715;BME280;39608;55.630;37.864;2023-01-08T07:19:54;100883.59;;;-11.90;61.26
53715;BME280;39608;55.630;37.864;2023-01-08T07:24:59;100889.63;;;-11.89;61.27
53715;BME280;39608;55.630;37.864;2023-01-08T07:30:03;100892.75;;;-11.84;60.97
53715;BME280;39608;55.630;37.864;2023-01-08T07:35:06;100893.84;;;-11.75;61.43
53715;BME280;39608;55.630;37.864;2023-01-08T07:40:09;100884.94;;;-11.73;61.16
53715;BME280;39608;55.630;37.864;2023-01-08T07:45:13;100899.56;;;-11.70;61.09
53715;BME280;39608;55.630;37.864;2023-01-08T07:50:15;100910.38;;;-11.75;60.99
53715;BME280;39608;55.630;37.864;2023-01-08T07:55:17;100922.03;;;-11.79;60.74
53715;BME280;39608;55.630;37.864;2023-01-08T08:00:20;100916.31;;;-11.73;61.33
53715;BME280;39608;55.630;37.864;2023-01-08T08:05:22;100916.03;;;-11.57;60.89
53715;BME280;39608;55.630;37.864;2023-01-08T08:10:24;100926.97;;;-11.40;60.75
53715;BME280;39608;55.630;37.864;2023-01-08T08:15:28;100914.97;;;-11.31;60.50
53715;BME280;39608;55.630;37.864;2023-01-08T08:20:30;100914.75;;;-11.28;60.79
53715;BME280;39608;55.630;37.864;2023-01-08T08:25:32;100907.94;;;-11.31;60.73
53715;BME280;39608;55.630;37.864;2023-01-08T08:30:36;100904.97;;;-11.38;60.67
53715;BME280;39608;55.630;37.864;2023-01-08T08:35:38;100912.44;;;-11.44;60.78
53715;BME280;39608;55.630;37.864;2023-01-08T08:40:41;100901.38;;;-11.59;60.96
53715;BME280;39608;55.630;37.864;2023-01-08T08:45:44;100904.47;;;-11.54;60.88
53715;BME280;39608;55.630;37.864;2023-01-08T08:50:46;100899.03;;;-11.40;60.64
53715;BME280;39608;55.630;37.864;2023-01-08T08:55:48;100890.69;;;-11.45;60.79
53715;BME280;39608;55.630;37.864;2023-01-08T09:00:52;100893.28;;;-11.56;60.58
53715;BME280;39608;55.630;37.864;2023-01-08T09:05:54;100889.34;;;-11.73;60.16
53715;BME280;39608;55.630;37.864;2023-01-08T09:10:56;100876.00;;;-11.81;60.92
53715;BME280;39608;55.630;37.864;2023-01-08T09:15:59;100893.69;;;-11.85;60.49
53715;BME280;39608;55.630;37.864;2023-01-08T09:21:06;100883.84;;;-11.81;60.89
53715;BME280;39608;55.630;37.864;2023-01-08T09:26:09;100889.34;;;-11.73;61.00
53715;BME280;39608;55.630;37.864;2023-01-08T09:31:12;100887.44;;;-11.71;60.47
53715;BME280;39608;55.630;37.864;2023-01-08T09:36:14;100884.81;;;-11.71;60.48
53715;BME280;39608;55.630;37.864;2023-01-08T09:41:18;100883.63;;;-11.67;60.42
53715;BME280;39608;55.630;37.864;2023-01-08T09:46:26;100879.47;;;-11.70;60.59
53715;BME280;39608;55.630;37.864;2023-01-08T09:51:30;100887.69;;;-11.52;60.88
53715;BME280;39608;55.630;37.864;2023-01-08T09:56:34;100893.91;;;-11.53;60.35
53715;BME280;39608;55.630;37.864;2023-01-08T10:01:38;100883.88;;;-11.47;60.49
53715;BME280;39608;55.630;37.864;2023-01-08T10:06:45;100886.63;;;-11.38;60.50
53715;BME280;39608;55.630;37.864;2023-01-08T10:11:50;100875.34;;;-11.38;60.19
53715;BME280;39608;55.630;37.864;2023-01-08T10:16:58;100881.88;;;-11.32;60.33
53715;BME280;39608;55.630;37.864;2023-01-08T10:22:01;100884.88;;;-11.26;60.19
53715;BME280;39608;55.630;37.864;2023-01-08T10:27:05;100898.09;;;-11.27;60.47
53715;BME280;39608;55.630;37.864;2023-01-08T10:32:14;100875.59;;;-11.30;60.45
53715;BME280;39608;55.630;37.864;2023-01-08T10:37:27;100891.41;;;-11.20;60.66
53715;BME280;39608;55.630;37.864;2023-01-08T10:42:33;100891.03;;;-11.15;60.49
53715;BME280;39608;55.630;37.864;2023-01-08T10:47:37;100894.38;;;-11.02;60.79
53715;BME280;39608;55.630;37.864;2023-01-08T10:52:39;100890.94;;;-11.14;60.03
53715;BME280;39608;55.630;37.864;2023-01-08T10:57:41;100898.78;;;-11.14;60.33
53715;BME280;39608;55.630;37.864;2023-01-08T11:02:55;100894.16;;;-11.10;59.91
53715;BME280;39608;55.630;37.864;2023-01-08T11:07:59;100880.44;;;-11.14;60.14
53715;BME280;39608;55.630;37.864;2023-01-08T11:13:03;100893.91;;;-11.19;60.28
53715;BME280;39608;55.630;37.864;2023-01-08T11:18:16;100883.91;;;-11.13;60.18
53715;BME280;39608;55.630;37.864;2023-01-08T11:23:27;100868.41;;;-11.16;60.50
53715;BME280;39608;55.630;37.864;2023-01-08T11:28:46;100880.94;;;-11.09;60.59
53715;BME280;39608;55.630;37.864;2023-01-08T11:33:55;100889.38;;;-11.05;60.49
53715;BME280;39608;55.630;37.864;2023-01-08T11:38:59;100870.22;;;-11.06;60.39
53715;BME280;39608;55.630;37.864;2023-01-08T11:44:11;100881.63;;;-10.95;60.45
53715;BME280;39608;55.630;37.864;2023-01-08T11:49:32;100884.59;;;-10.89;60.51
53715;BME280;39608;55.630;37.864;2023-01-08T11:54:55;100864.38;;;-10.98;60.11
53715;BME280;39608;55.630;37.864;2023-01-08T12:00:14;100880.41;;;-10.80;60.46
53715;BME280;39608;55.630;37.864;2023-01-08T12:05:29;100895.53;;;-10.72;60.16
53715;BME280;39608;55.630;37.864;2023-01-08T12:10:41;100892.41;;;-10.66;60.21
53715;BME280;39608;55.630;37.864;2023-01-08T12:15:58;100898.50;;;-10.65;60.14
53715;BME280;39608;55.630;37.864;2023-01-08T12:21:11;100888.50;;;-10.72;60.15
53715;BME280;39608;55.630;37.864;2023-01-08T12:26:18;100886.97;;;-10.74;60.16
53715;BME280;39608;55.630;37.864;2023-01-08T12:31:47;100895.75;;;-10.64;60.08
53715;BME280;39608;55.630;37.864;2023-01-08T12:37:03;100903.97;;;-10.57;60.16
53715;BME280;39608;55.630;37.864;2023-01-08T12:42:13;100902.03;;;-10.55;60.02
53715;BME280;39608;55.630;37.864;2023-01-08T12:47:18;100896.81;;;-10.55;59.63
53715;BME280;39608;55.630;37.864;2023-01-08T12:52:25;100900.06;;;-10.63;59.69
53715;BME280;39608;55.630;37.864;2023-01-08T12:57:39;100912.69;;;-10.68;60.03
53715;BME280;39608;55.630;37.864;2023-01-08T13:02:49;100912.94;;;-10.71;60.09
53715;BME280;39608;55.630;37.864;2023-01-08T13:07:56;100918.28;;;-10.73;60.40
53715;BME280;39608;55.630;37.864;2023-01-08T13:12:59;100916.97;;;-10.67;59.83
53715;BME280;39608;55.630;37.864;2023-01-08T13:18:06;100900.88;;;-10.62;60.04
53715;BME280;39608;55.630;37.864;2023-01-08T13:23:23;100908.75;;;-10.62;59.87
53715;BME280;39608;55.630;37.864;2023-01-08T13:28:28;100907.06;;;-10.63;60.21
53715;BME280;39608;55.630;37.864;2023-01-08T13:33:38;100901.69;;;-10.62;60.04
53715;BME280;39608;55.630;37.864;2023-01-08T13:38:44;100898.03;;;-10.71;60.18
53715;BME280;39608;55.630;37.864;2023-01-08T13:43:58;100914.81;;;-10.62;59.91
53715;BME280;39608;55.630;37.864;2023-01-08T13:49:03;100911.94;;;-10.70;60.07
53715;BME280;39608;55.630;37.864;2023-01-08T13:54:16;100918.28;;;-10.73;60.04
53715;BME280;39608;55.630;37.864;2023-01-08T13:59:30;100923.88;;;-10.77;60.45
53715;BME280;39608;55.630;37.864;2023-01-08T14:04:34;100929.88;;;-10.87;60.07
53715;BME280;39608;55.630;37.864;2023-01-08T14:09:38;100934.25;;;-10.98;60.19
53715;BME280;39608;55.630;37.864;2023-01-08T14:14:46;100921.97;;;-11.21;60.54
53715;BME280;39608;55.630;37.864;2023-01-08T14:19:48;100927.34;;;-11.33;60.41
53715;BME280;39608;55.630;37.864;2023-01-08T14:24:55;100942.22;;;-11.34;60.73
53715;BME280;39608;55.630;37.864;2023-01-08T14:29:57;100939.84;;;-11.37;60.53
53715;BME280;39608;55.630;37.864;2023-01-08T14:35:00;100941.16;;;-11.31;60.79
53715;BME280;39608;55.630;37.864;2023-01-08T14:40:12;100925.78;;;-11.36;60.92
53715;BME280;39608;55.630;37.864;2023-01-08T14:45:18;100944.97;;;-11.24;61.14
53715;BME280;39608;55.630;37.864;2023-01-08T14:50:24;100933.56;;;-11.23;60.59
53715;BME280;39608;55.630;37.864;2023-01-08T14:55:30;100943.44;;;-11.15;60.72
53715;BME280;39608;55.630;37.864;2023-01-08T15:00:36;100932.00;;;-11.14;60.56
53715;BME280;39608;55.630;37.864;2023-01-08T15:05:48;100913.31;;;-11.32;60.57
53715;BME280;39608;55.630;37.864;2023-01-08T15:11:00;100937.69;;;-11.21;60.56
53715;BME280;39608;55.630;37.864;2023-01-08T15:16:07;100932.94;;;-11.27;60.54
53715;BME280;39608;55.630;37.864;2023-01-08T15:21:15;100941.38;;;-11.35;61.06
53715;BME280;39608;55.630;37.864;2023-01-08T15:26:20;100919.56;;;-11.58;60.86
53715;BME280;39608;55.630;37.864;2023-01-08T15:31:28;100947.56;;;-11.47;60.89
53715;BME280;39608;55.630;37.864;2023-01-08T15:36:30;100946.94;;;-11.50;61.21
53715;BME280;39608;55.630;37.864;2023-01-08T15:41:35;100953.84;;;-11.49;61.16
53715;BME280;39608;55.630;37.864;2023-01-08T15:46:55;100949.69;;;-11.52;61.02
53715;BME280;39608;55.630;37.864;2023-01-08T15:51:57;100948.88;;;-11.41;61.46
53715;BME280;39608;55.630;37.864;2023-01-08T15:57:00;100944.97;;;-11.36;61.02
53715;BME280;39608;55.630;37.864;2023-01-08T16:02:03;100955.44;;;-11.36;61.22
53715;BME280;39608;55.630;37.864;2023-01-08T16:07:05;100957.94;;;-11.34;61.44
53715;BME280;39608;55.630;37.864;2023-01-08T16:12:09;100960.88;;;-11.39;60.85
53715;BME280;39608;55.630;37.864;2023-01-08T16:17:12;100959.69;;;-11.46;60.85
53715;BME280;39608;55.630;37.864;2023-01-08T16:22:14;100957.66;;;-11.54;61.17
53715;BME280;39608;55.630;37.864;2023-01-08T16:27:18;100953.84;;;-11.49;61.47
53715;BME280;39608;55.630;37.864;2023-01-08T16:32:20;100943.84;;;-11.56;61.35
53715;BME280;39608;55.630;37.864;2023-01-08T16:37:22;100956.72;;;-11.53;61.21
53715;BME280;39608;55.630;37.864;2023-01-08T16:42:25;100954.19;;;-11.54;61.00
53715;BME280;39608;55.630;37.864;2023-01-08T16:47:27;100953.59;;;-11.58;61.28
53715;BME280;39608;55.630;37.864;2023-01-08T16:52:30;100945.25;;;-11.63;61.11
53715;BME280;39608;55.630;37.864;2023-01-08T16:57:33;100942.25;;;-11.70;61.20
53715;BME280;39608;55.630;37.864;2023-01-08T17:02:35;100946.88;;;-11.84;61.10
53715;BME280;39608;55.630;37.864;2023-01-08T17:07:38;100940.66;;;-11.95;61.28
53715;BME280;39608;55.630;37.864;2023-01-08T17:12:42;100942.97;;;-12.14;61.50
53715;BME280;39608;55.630;37.864;2023-01-08T17:17:44;100947.66;;;-12.31;61.53
53715;BME280;39608;55.630;37.864;2023-01-08T17:22:46;100933.78;;;-12.44;61.14
53715;BME280;39608;55.630;37.864;2023-01-08T17:27:49;100934.13;;;-12.49;61.19
53715;BME280;39608;55.630;37.864;2023-01-08T17:32:51;100928.16;;;-12.51;61.20
53715;BME280;39608;55.630;37.864;2023-01-08T17:37:54;100933.50;;;-12.52;61.32
53715;BME280;39608;55.630;37.864;2023-01-08T17:42:57;100930.06;;;-12.53;61.71
53715;BME280;39608;55.630;37.864;2023-01-08T17:47:59;100937.78;;;-12.51;61.70
53715;BME280;39608;55.630;37.864;2023-01-08T17:53:01;100935.47;;;-12.43;61.93
53715;BME280;39608;55.630;37.864;2023-01-08T17:58:04;100948.81;;;-12.35;61.44
53715;BME280;39608;55.630;37.864;2023-01-08T18:03:06;100949.00;;;-12.38;61.55
53715;BME280;39608;55.630;37.864;2023-01-08T18:08:08;100952.72;;;-12.41;61.59
53715;BME280;39608;55.630;37.864;2023-01-08T18:13:12;100954.81;;;-12.46;61.33
53715;BME280;39608;55.630;37.864;2023-01-08T18:18:14;100941.56;;;-12.56;61.37
53715;BME280;39608;55.630;37.864;2023-01-08T18:23:36;100955.03;;;-12.49;61.62
53715;BME280;39608;55.630;37.864;2023-01-08T18:28:40;100962.69;;;-12.59;61.68
53715;BME280;39608;55.630;37.864;2023-01-08T18:33:42;100961.94;;;-12.61;61.54
53715;BME280;39608;55.630;37.864;2023-01-08T18:38:44;100979.13;;;-12.69;61.63
53715;BME280;39608;55.630;37.864;2023-01-08T18:43:47;100973.47;;;-12.76;61.42
53715;BME280;39608;55.630;37.864;2023-01-08T18:48:51;100976.84;;;-12.74;61.41
53715;BME280;39608;55.630;37.864;2023-01-08T18:53:53;100981.69;;;-12.57;61.26
53715;BME280;39608;55.630;37.864;2023-01-08T18:58:59;100978.16;;;-12.56;61.27
53715;BME280;39608;55.630;37.864;2023-01-08T19:04:04;101004.06;;;-12.52;61.24
53715;BME280;39608;55.630;37.864;2023-01-08T19:09:06;101011.09;;;-12.66;61.50
53715;BME280;39608;55.630;37.864;2023-01-08T19:14:10;100997.50;;;-12.71;61.37
53715;BME280;39608;55.630;37.864;2023-01-08T19:19:12;101004.41;;;-12.70;61.47
53715;BME280;39608;55.630;37.864;2023-01-08T19:24:14;100999.31;;;-12.71;61.83
53715;BME280;39608;55.630;37.864;2023-01-08T19:29:18;101016.22;;;-12.64;61.53
53715;BME280;39608;55.630;37.864;2023-01-08T19:34:20;101026.03;;;-12.68;61.08
53715;BME280;39608;55.630;37.864;2023-01-08T19:39:22;101030.53;;;-12.70;60.90
53715;BME280;39608;55.630;37.864;2023-01-08T19:44:25;101030.91;;;-12.63;61.21
53715;BME280;39608;55.630;37.864;2023-01-08T19:49:28;101039.28;;;-12.58;60.91
53715;BME280;39608;55.630;37.864;2023-01-08T19:54:29;101039.47;;;-12.48;61.36
53715;BME280;39608;55.630;37.864;2023-01-08T19:59:33;101045.00;;;-12.40;61.04
53715;BME280;39608;55.630;37.864;2023-01-08T20:04:35;101040.31;;;-12.35;61.11
53715;BME280;39608;55.630;37.864;2023-01-08T20:09:38;101032.75;;;-12.40;60.43
53715;BME280;39608;55.630;37.864;2023-01-08T20:14:42;101049.72;;;-12.45;60.57
53715;BME280;39608;55.630;37.864;2023-01-08T20:19:44;101053.81;;;-12.54;60.79
53715;BME280;39608;55.630;37.864;2023-01-08T20:24:46;101045.34;;;-12.70;61.01
53715;BME280;39608;55.630;37.864;2023-01-08T20:29:50;101054.75;;;-12.68;60.54
53715;BME280;39608;55.630;37.864;2023-01-08T20:34:52;101040.75;;;-12.93;60.17
53715;BME280;39608;55.630;37.864;2023-01-08T20:39:54;101051.63;;;-13.12;60.61
53715;BME280;39608;55.630;37.864;2023-01-08T20:44:57;101035.53;;;-13.18;60.87
53715;BME280;39608;55.630;37.864;2023-01-08T20:49:59;101028.22;;;-13.26;60.42
53715;BME280;39608;55.630;37.864;2023-01-08T20:55:01;101038.56;;;-13.25;60.33
53715;BME280;39608;55.630;37.864;2023-01-08T21:00:07;101036.59;;;-13.08;60.71
53715;BME280;39608;55.630;37.864;2023-01-08T21:05:09;101049.75;;;-13.10;60.31
53715;BME280;39608;55.630;37.864;2023-01-08T21:10:11;101067.09;;;-12.96;60.16
53715;BME280;39608;55.630;37.864;2023-01-08T21:15:17;101066.38;;;-12.85;60.03
53715;BME280;39608;55.630;37.864;2023-01-08T21:20:21;101066.38;;;-12.98;60.40
53715;BME280;39608;55.630;37.864;2023-01-08T21:25:23;101075.13;;;-12.99;60.52
53715;BME280;39608;55.630;37.864;2023-01-08T21:30:26;101069.16;;;-13.14;60.07
53715;BME280;39608;55.630;37.864;2023-01-08T21:35:32;101065.28;;;-13.34;60.36
53715;BME280;39608;55.630;37.864;2023-01-08T21:40:34;101068.03;;;-13.35;60.89
53715;BME280;39608;55.630;37.864;2023-01-08T21:45:38;101052.00;;;-13.31;60.68
53715;BME280;39608;55.630;37.864;2023-01-08T21:50:41;101068.66;;;-13.19;60.99
53715;BME280;39608;55.630;37.864;2023-01-08T21:55:43;101068.94;;;-13.23;61.00
53715;BME280;39608;55.630;37.864;2023-01-08T22:00:47;101072.50;;;-13.25;60.79
53715;BME280;39608;55.630;37.864;2023-01-08T22:05:56;101063.94;;;-13.27;60.70
53715;BME280;39608;55.630;37.864;2023-01-08T22:10:59;101061.03;;;-13.35;60.56
53715;BME280;39608;55.630;37.864;2023-01-08T22:16:05;101071.66;;;-13.38;60.97
53715;BME280;39608;55.630;37.864;2023-01-08T22:21:10;101070.28;;;-13.44;60.93
53715;BME280;39608;55.630;37.864;2023-01-08T22:26:12;101068.59;;;-13.32;60.70
53715;BME280;39608;55.630;37.864;2023-01-08T22:31:16;101072.91;;;-13.44;60.52
53715;BME280;39608;55.630;37.864;2023-01-08T22:36:18;101084.97;;;-13.55;60.62
53715;BME280;39608;55.630;37.864;2023-01-08T22:41:21;101087.25;;;-13.64;60.66
53715;BME280;39608;55.630;37.864;2023-01-08T22:46:25;101080.34;;;-13.65;61.00
53715;BME280;39608;55.630;37.864;2023-01-08T22:51:27;101086.31;;;-13.63;60.58
53715;BME280;39608;55.630;37.864;2023-01-08T22:56:29;101097.75;;;-13.65;61.04
53715;BME280;39608;55.630;37.864;2023-01-08T23:01:32;101097.34;;;-13.72;60.81
53715;BME280;39608;55.630;37.864;2023-01-08T23:06:34;101099.69;;;-13.82;61.11
53715;BME280;39608;55.630;37.864;2023-01-08T23:11:36;101091.22;;;-13.85;60.78
53715;BME280;39608;55.630;37.864;2023-01-08T23:16:40;101093.00;;;-13.86;60.76
53715;BME280;39608;55.630;37.864;2023-01-08T23:21:42;101091.63;;;-13.91;60.95
53715;BME280;39608;55.630;37.864;2023-01-08T23:26:44;101095.72;;;-14.02;60.61
53715;BME280;39608;55.630;37.864;2023-01-08T23:31:47;101091.22;;;-14.13;60.33
53715;BME280;39608;55.630;37.864;2023-01-08T23:36:49;101083.94;;;-14.22;60.88
53715;BME280;39608;55.630;37.864;2023-01-08T23:41:51;101077.16;;;-14.24;61.00
53715;BME280;39608;55.630;37.864;2023-01-08T23:46:54;101084.88;;;-14.23;60.85
53715;BME280;39608;55.630;37.864;2023-01-08T23:51:56;101088.69;;;-14.29;60.71
53715;BME280;39608;55.630;37.864;2023-01-08T23:56:58;101080.09;;;-14.43;61.05
